Time;durP1;ratioP1;P1;durP2;ratioP2;P2;SDS_P1;SDS_P2;PMS_P1;PMS_P2;Temp;Humidity;BMP_temperature;BMP_pressure;BME280_temperature;BME280_humidity;BME280_pressure;Samples;Min_cycle;Max_cycle;Signal;HPM_P1;HPM_P2
2021/07/24 00:01:40;;;;;;;17.05;10.25;;;;;;;19.52;68.96;100130.94;5052776;28;20399;-77
2021/07/24 00:04:10;;;;;;;15.35;10.07;;;;;;;19.56;68.92;100135.91;5053502;28;20041;-77
2021/07/24 00:06:46;;;;;;;17.60;10.45;;;;;;;19.56;68.77;100137.78;5052926;28;20041;-77
2021/07/24 00:09:14;;;;;;;17.13;10.52;;;;;;;19.64;67.83;100129.75;5053088;28;20053;-77
2021/07/24 00:11:43;;;;;;;14.10;10.23;;;;;;;19.74;66.79;100125.13;5052871;28;20037;-80
2021/07/24 00:14:11;;;;;;;17.38;10.25;;;;;;;19.73;67.28;100126.97;5052872;28;20503;-79
2021/07/24 00:16:41;;;;;;;17.52;10.68;;;;;;;19.78;67.30;100125.66;5052569;28;20507;-77
2021/07/24 00:19:09;;;;;;;15.52;10.43;;;;;;;19.60;68.09;100129.22;5053264;28;20102;-78
2021/07/24 00:21:37;;;;;;;15.75;10.23;;;;;;;19.75;67.42;100125.97;5052552;28;20040;-76
2021/07/24 00:24:06;;;;;;;15.50;10.85;;;;;;;19.70;67.46;100129.16;5052828;28;20099;-77
2021/07/24 00:26:34;;;;;;;15.75;10.55;;;;;;;19.73;67.73;100124.28;5052418;28;20053;-78
2021/07/24 00:29:05;;;;;;;13.77;9.65;;;;;;;19.56;68.19;100129.66;5052739;28;20045;-77
2021/07/24 00:31:35;;;;;;;16.02;10.48;;;;;;;19.47;68.63;100133.25;5051197;28;20487;-78
2021/07/24 00:34:05;;;;;;;15.65;10.30;;;;;;;19.49;68.75;100128.53;5052985;28;20099;-78
2021/07/24 00:36:33;;;;;;;15.13;10.88;;;;;;;19.65;68.34;100131.44;5052520;28;20045;-78
2021/07/24 00:39:02;;;;;;;16.88;10.30;;;;;;;19.63;68.66;100131.59;5052701;28;20090;-77
2021/07/24 00:41:35;;;;;;;17.38;10.52;;;;;;;19.52;68.97;100125.53;5052656;28;20045;-78
2021/07/24 00:44:04;;;;;;;;;;;;;;;19.57;68.73;100134.06;5053349;28;20041;-77
2021/07/24 00:46:36;;;;;;;16.48;9.68;;;;;;;19.57;68.89;100123.25;5052782;28;19920;-77
2021/07/24 00:49:07;;;;;;;15.25;10.60;;;;;;;19.62;68.42;100131.75;5052874;28;20053;-77
2021/07/24 00:51:38;;;;;;;14.07;10.07;;;;;;;19.59;68.20;100130.22;5051296;28;20053;-77
2021/07/24 00:54:07;;;;;;;16.20;10.20;;;;;;;19.60;67.70;100134.63;5052694;28;20048;-77
2021/07/24 00:56:39;;;;;;;18.00;9.77;;;;;;;19.57;67.36;100131.34;5052520;28;20091;-77
2021/07/24 00:59:09;;;;;;;16.30;9.90;;;;;;;19.53;66.85;100138.06;5052827;28;20045;-77
2021/07/24 01:01:41;;;;;;;14.07;10.02;;;;;;;19.61;66.57;100128.22;5052259;28;20048;-77
2021/07/24 01:04:11;;;;;;;14.10;10.52;;;;;;;19.52;67.19;100133.66;5052671;28;20065;-77
2021/07/24 01:06:43;;;;;;;15.80;10.05;;;;;;;19.57;67.32;100131.34;5052254;28;20045;-78
2021/07/24 01:09:11;;;;;;;16.85;10.48;;;;;;;19.58;67.43;100130.34;5051906;28;20044;-77
2021/07/24 01:11:40;;;;;;;14.25;9.85;;;;;;;19.57;68.17;100128.66;5052185;28;20377;-76
2021/07/24 01:14:10;;;;;;;17.08;10.70;;;;;;;19.54;68.58;100137.91;5052308;28;20041;-76
2021/07/24 01:16:39;;;;;;;15.95;10.93;;;;;;;19.47;68.96;100130.53;5051797;28;20109;-76
2021/07/24 01:19:09;;;;;;;16.77;10.77;;;;;;;19.25;70.30;100134.53;5052303;28;20060;-76
2021/07/24 01:21:38;;;;;;;16.35;11.02;;;;;;;19.14;70.46;100136.44;5052098;28;20072;-76
2021/07/24 01:24:06;;;;;;;14.55;9.98;;;;;;;19.15;70.33;100132.72;5052390;28;20049;-76
2021/07/24 01:26:36;;;;;;;14.57;10.05;;;;;;;19.24;70.35;100122.84;5052031;28;20415;-76
2021/07/24 01:29:05;;;;;;;17.95;10.45;;;;;;;19.24;69.96;100125.56;5052215;28;20045;-76
2021/07/24 01:31:34;;;;;;;14.70;10.13;;;;;;;19.29;69.73;100120.53;5051927;28;20476;-76
2021/07/24 01:34:02;;;;;;;14.65;9.95;;;;;;;19.15;70.40;100119.19;5052371;28;20087;-76
2021/07/24 01:36:31;;;;;;;13.95;10.45;;;;;;;19.10;70.52;100120.66;5051978;28;20123;-77
2021/07/24 01:39:01;;;;;;;14.57;9.27;;;;;;;19.06;70.70;100119.25;5052340;28;20088;-77
2021/07/24 01:41:29;;;;;;;15.05;9.88;;;;;;;19.05;70.52;100120.25;5053331;28;20136;-81
2021/07/24 01:43:58;;;;;;;15.23;9.73;;;;;;;18.90;71.09;100121.72;5055652;28;20049;-76
2021/07/24 01:46:26;;;;;;;15.27;9.40;;;;;;;19.03;70.04;100114.16;5056098;28;20048;-77
2021/07/24 01:49:05;;;;;;;16.55;9.85;;;;;;;18.99;70.33;100121.69;5055642;28;20045;-77
2021/07/24 01:54:33;;;;;;;15.45;10.25;;;;;;;18.81;70.99;100116.22;5055836;28;20044;-77
2021/07/24 01:57:05;;;;;;;15.30;10.38;;;;;;;18.81;70.86;100110.81;5055725;28;20041;-77
2021/07/24 01:59:35;;;;;;;14.15;10.85;;;;;;;18.50;73.34;100112.88;5055342;28;20119;-77
2021/07/24 02:02:04;;;;;;;15.68;11.05;;;;;;;18.51;73.12;100108.34;5055444;28;20114;-77
2021/07/24 02:04:38;;;;;;;15.15;10.18;;;;;;;18.67;72.45;100102.34;5055110;28;20051;-77
2021/07/24 02:07:07;;;;;;;15.18;10.57;;;;;;;18.47;73.43;100101.53;5055518;28;20045;-76
2021/07/24 02:09:37;;;;;;;16.52;10.57;;;;;;;18.51;73.16;100109.19;5054989;28;20080;-77
2021/07/24 02:12:07;;;;;;;14.43;11.07;;;;;;;18.56;73.24;100112.31;5055742;28;20522;-78
2021/07/24 02:14:35;;;;;;;16.25;10.88;;;;;;;18.33;74.67;100104.69;5054872;28;20064;-78
2021/07/24 02:17:04;;;;;;;16.67;10.85;;;;;;;18.39;74.67;100104.09;5055402;28;20045;-78
2021/07/24 02:19:33;;;;;;;15.80;11.18;;;;;;;18.21;75.19;100102.16;5054725;28;20471;-77
2021/07/24 02:22:02;;;;;;;17.85;11.32;;;;;;;18.12;75.62;100097.63;5055125;28;20045;-77
2021/07/24 02:24:30;;;;;;;19.15;11.30;;;;;;;18.16;75.51;100099.03;5054982;28;20047;-77
2021/07/24 02:26:59;;;;;;;16.52;10.60;;;;;;;18.15;75.44;100097.34;5055019;28;20048;-77
2021/07/24 02:29:28;;;;;;;16.85;10.73;;;;;;;17.98;76.22;100103.47;5054762;28;20051;-77
2021/07/24 02:31:56;;;;;;;15.75;11.52;;;;;;;17.73;77.81;100097.63;5054718;28;20136;-77
2021/07/24 02:34:24;;;;;;;17.30;11.55;;;;;;;17.83;77.39;100107.59;5054760;28;20045;-77
2021/07/24 02:36:53;;;;;;;17.27;11.02;;;;;;;17.81;77.22;100104.19;5054686;28;20877;-77
2021/07/24 02:39:21;;;;;;;19.00;11.52;;;;;;;17.83;77.15;100099.47;5054827;28;20091;-78
2021/07/24 02:41:49;;;;;;;14.82;11.13;;;;;;;17.76;77.94;100106.44;5054195;28;20049;-78
2021/07/24 02:44:18;;;;;;;20.42;10.85;;;;;;;17.97;76.88;100104.47;5054661;28;20049;-77
2021/07/24 02:46:47;;;;;;;15.15;10.85;;;;;;;18.06;76.32;100098.22;5054418;28;20087;-77
2021/07/24 02:49:15;;;;;;;17.42;11.55;;;;;;;18.01;76.59;100105.88;5054696;28;20048;-77
2021/07/24 02:51:43;;;;;;;15.75;11.32;;;;;;;17.94;77.19;100099.34;5054240;28;20488;-77
2021/07/24 02:54:12;;;;;;;14.52;11.05;;;;;;;17.78;78.31;100104.47;5053644;28;20045;-77
2021/07/24 02:56:43;;;;;;;17.15;11.73;;;;;;;17.68;79.27;100097.19;5053958;28;20045;-78
2021/07/24 02:59:11;;;;;;;17.05;11.68;;;;;;;17.59;79.90;100103.44;5054220;28;20067;-78
2021/07/24 03:01:44;;;;;;;17.67;11.55;;;;;;;17.86;78.65;100101.91;5054183;28;20160;-77
2021/07/24 03:04:13;;;;;;;16.23;11.02;;;;;;;18.05;77.60;100092.94;5054534;28;20049;-77
2021/07/24 03:06:42;;;;;;;16.90;10.80;;;;;;;18.07;77.03;100094.50;5054044;28;20044;-77
2021/07/24 03:09:11;;;;;;;17.10;11.10;;;;;;;18.00;77.85;100099.63;5053092;28;20052;-77
2021/07/24 03:11:39;;;;;;;16.63;10.98;;;;;;;18.04;77.15;100100.19;5053984;28;20051;-77
2021/07/24 03:14:08;;;;;;;17.80;10.65;;;;;;;17.82;78.22;100105.88;5054255;28;20047;-77
2021/07/24 03:16:36;;;;;;;16.30;11.35;;;;;;;17.98;77.66;100100.78;5053545;28;20479;-77
2021/07/24 03:19:07;;;;;;;16.58;10.95;;;;;;;18.03;77.41;100109.28;5053805;28;20107;-77
2021/07/24 03:21:35;;;;;;;15.15;10.63;;;;;;;18.07;77.03;100099.91;5053631;28;20459;-77
2021/07/24 03:24:04;;;;;;;15.13;11.30;;;;;;;18.06;76.91;100100.06;5054067;28;20123;-77
2021/07/24 03:26:32;;;;;;;18.98;11.48;;;;;;;17.91;77.42;100103.19;5054096;28;20045;-78
2021/07/24 03:29:01;;;;;;;19.10;11.25;;;;;;;17.82;77.83;100095.09;5053611;28;20095;-78
2021/07/24 03:31:29;;;;;;;14.93;10.98;;;;;;;17.88;78.05;100099.94;5054071;28;20041;-77
2021/07/24 03:33:58;;;;;;;14.10;10.50;;;;;;;17.92;77.32;100106.72;5053536;28;20059;-78
2021/07/24 03:36:28;;;;;;;17.60;10.40;;;;;;;18.00;76.62;100101.47;5054123;28;20041;-81
2021/07/24 03:38:56;;;;;;;16.95;10.45;;;;;;;18.07;75.87;100099.91;5053500;28;20145;-82
2021/07/24 03:41:24;;;;;;;16.90;10.80;;;;;;;18.08;75.45;100101.59;5053553;28;20048;-76
2021/07/24 03:43:52;;;;;;;15.75;10.48;;;;;;;18.14;75.52;100094.75;5053221;28;20048;-76
2021/07/24 03:46:21;;;;;;;15.85;10.70;;;;;;;18.16;75.05;100088.25;5053797;28;20098;-76
2021/07/24 03:48:52;;;;;;;15.98;10.25;;;;;;;18.06;75.18;100097.38;5053323;28;20049;-74
2021/07/24 03:51:21;;;;;;;14.43;10.70;;;;;;;18.11;74.88;100101.31;5053543;28;20068;-76
2021/07/24 03:53:51;;;;;;;14.15;10.02;;;;;;;18.40;73.58;100105.81;5053312;28;20127;-85
2021/07/24 03:56:21;;;;;;;15.70;10.20;;;;;;;18.82;71.56;100098.19;5053732;28;20041;-85
2021/07/24 03:58:53;;;;;;;13.60;9.80;;;;;;;19.19;69.28;100108.94;5053255;28;20392;-79
2021/07/24 04:01:24;;;;;;;14.02;9.77;;;;;;;19.82;66.65;100105.41;5053673;28;20399;-79
2021/07/24 04:03:53;;;;;;;15.60;9.77;;;;;;;19.74;66.88;100108.88;5052689;28;20049;-79
2021/07/24 04:06:23;;;;;;;13.82;9.15;;;;;;;20.46;63.64;100105.13;5052750;28;20120;-79
2021/07/24 04:08:56;;;;;;;17.30;9.40;;;;;;;20.88;61.87;100093.47;5052995;28;20488;-78
2021/07/24 04:11:25;;;;;;;;;;;;;;;21.66;59.14;100104.94;5053611;28;20044;-79
2021/07/24 04:13:53;;;;;;;12.82;9.10;;;;;;;21.91;57.91;100102.28;5053012;28;19960;-79
2021/07/24 04:16:22;;;;;;;12.40;8.70;;;;;;;22.18;56.67;100103.81;5053411;28;20049;-77
2021/07/24 04:18:50;;;;;;;15.98;9.30;;;;;;;22.51;55.53;100093.78;5052743;28;20127;-76
2021/07/24 04:21:18;;;;;;;14.07;8.75;;;;;;;22.79;55.21;100097.78;5053396;28;20041;-77
2021/07/24 04:23:47;;;;;;;15.05;8.60;;;;;;;23.31;52.85;100101.84;5052677;28;20037;-77
2021/07/24 04:26:18;;;;;;;15.73;9.60;;;;;;;23.09;53.91;100098.03;5052785;28;20045;-77
2021/07/24 04:28:46;;;;;;;13.18;8.77;;;;;;;22.92;53.49;100096.41;5052947;28;20049;-77
2021/07/24 04:31:15;;;;;;;13.32;9.00;;;;;;;22.50;55.87;100092.91;5052247;28;20459;-77
2021/07/24 04:33:44;;;;;;;14.07;8.95;;;;;;;22.55;55.18;100092.38;5052692;28;20049;-78
2021/07/24 04:36:15;;;;;;;19.05;9.73;;;;;;;23.48;52.33;100097.16;5052958;28;20124;-77
2021/07/24 04:38:43;;;;;;;14.18;9.10;;;;;;;24.07;50.89;100092.00;5052334;28;20124;-78
2021/07/24 04:41:20;;;;;;;16.35;9.38;;;;;;;24.07;50.85;100092.00;5052800;28;20142;-79
2021/07/24 04:43:49;;;;;;;14.93;8.98;;;;;;;24.48;49.52;100084.31;5052461;28;20076;-78
2021/07/24 04:46:17;;;;;;;14.48;9.60;;;;;;;24.34;49.58;100088.72;5052751;28;20094;-77
2021/07/24 04:48:45;;;;;;;12.32;8.77;;;;;;;24.40;49.40;100096.13;5052502;28;20096;-78
2021/07/24 04:51:15;;;;;;;13.07;8.98;;;;;;;24.30;49.73;100087.34;5052642;28;20041;-77
2021/07/24 04:53:47;;;;;;;12.77;8.57;;;;;;;24.51;48.09;100087.53;5051620;28;20091;-79
2021/07/24 04:56:15;;;;;;;14.13;8.50;;;;;;;24.74;47.87;100097.50;5052678;28;20044;-80
2021/07/24 04:58:45;;;;;;;14.18;8.65;;;;;;;24.90;47.58;100096.44;5052228;28;20045;-76
2021/07/24 05:01:14;;;;;;;12.80;8.40;;;;;;;25.29;46.56;100093.44;5052508;28;20484;-80
2021/07/24 05:03:43;;;;;;;11.77;8.27;;;;;;;26.00;44.65;100097.19;5052118;28;20037;-78
2021/07/24 05:06:11;;;;;;;12.38;8.40;;;;;;;26.13;43.50;100102.75;5052842;28;20391;-80
2021/07/24 05:08:40;;;;;;;10.55;8.05;;;;;;;26.06;44.13;100095.56;5052680;28;20041;-80
2021/07/24 05:11:11;;;;;;;11.00;8.35;;;;;;;25.77;44.24;100096.50;5052525;28;20098;-85
2021/07/24 05:13:40;;;;;;;13.98;9.15;;;;;;;26.08;44.02;100094.31;5052661;28;20412;-89
2021/07/24 05:16:10;;;;;;;11.88;8.48;;;;;;;26.31;43.76;100101.44;5053131;28;20052;-81
2021/07/24 05:18:40;;;;;;;10.75;7.65;;;;;;;26.20;43.66;100105.56;5057277;28;20049;-78
2021/07/24 05:21:15;;;;;;;11.32;8.27;;;;;;;26.22;43.20;100107.03;5059792;28;20037;-74
2021/07/24 05:23:43;;;;;;;14.93;8.25;;;;;;;26.21;42.69;100102.63;5056712;28;20040;-87
2021/07/24 05:26:15;;;;;;;14.95;7.93;;;;;;;26.20;43.30;100106.41;5056282;28;20052;-85
2021/07/24 05:28:43;;;;;;;10.80;7.40;;;;;;;26.76;40.89;100106.44;5055164;28;20056;-84
2021/07/24 05:31:17;;;;;;;11.80;7.18;;;;;;;26.41;41.94;100105.53;5056084;28;20041;-78
2021/07/24 05:33:46;;;;;;;11.90;7.60;;;;;;;27.05;40.65;100107.25;5056142;28;20099;-81
2021/07/24 05:36:15;;;;;;;12.32;7.50;;;;;;;26.99;40.79;100097.09;5056017;28;20140;-80
2021/07/24 05:38:44;;;;;;;9.02;7.13;;;;;;;27.37;40.24;100105.72;5055887;28;20115;-80
2021/07/24 05:41:12;;;;;;;11.95;7.28;;;;;;;27.68;39.76;100110.69;5055845;28;20041;-77
2021/07/24 05:43:40;;;;;;;14.30;7.80;;;;;;;26.93;41.01;100108.84;5055736;28;20055;-74
2021/07/24 05:46:08;;;;;;;14.68;7.57;;;;;;;27.78;39.58;100108.38;5055209;28;20490;-70
2021/07/24 05:48:38;;;;;;;12.93;7.82;;;;;;;28.81;37.65;100108.84;5055790;28;20048;-71
2021/07/24 05:51:07;;;;;;;10.52;7.50;;;;;;;29.01;37.64;100103.34;5055498;28;20069;-74
2021/07/24 05:53:36;;;;;;;9.98;7.20;;;;;;;28.32;37.69;100120.31;5055472;28;20045;-72
2021/07/24 05:56:04;;;;;;;13.40;7.07;;;;;;;28.27;37.70;100118.16;5055164;28;20110;-71
2021/07/24 05:58:33;;;;;;;14.02;7.45;;;;;;;28.88;37.31;100115.19;5054506;28;20127;-72
2021/07/24 06:01:01;;;;;;;10.88;7.60;;;;;;;28.30;38.01;100115.03;5055128;28;20132;-72
2021/07/24 06:03:29;;;;;;;10.65;7.22;;;;;;;29.07;36.71;100114.31;5055343;28;20088;-73
2021/07/24 06:06:02;;;;;;;11.57;7.38;;;;;;;29.27;36.71;100118.91;5055074;28;20037;-75
2021/07/24 06:08:31;;;;;;;11.05;7.10;;;;;;;28.80;37.71;100124.47;5055496;28;20103;-81
2021/07/24 06:10:59;;;;;;;11.10;7.25;;;;;;;28.89;37.13;100127.03;5055087;28;20492;-79
2021/07/24 06:13:28;;;;;;;11.00;7.10;;;;;;;29.68;36.28;100126.75;5054502;28;20061;-79
2021/07/24 06:15:58;;;;;;;11.45;8.00;;;;;;;29.33;36.53;100123.50;5055357;28;20045;-79
2021/07/24 06:18:26;;;;;;;9.95;7.32;;;;;;;29.85;35.24;100127.09;5054726;28;20049;-78
2021/07/24 06:20:57;;;;;;;13.15;7.65;;;;;;;29.40;35.57;100129.81;5055233;28;20071;-79
2021/07/24 06:23:27;;;;;;;13.95;7.72;;;;;;;29.28;35.92;100131.56;5055218;28;20102;-77
2021/07/24 06:25:56;;;;;;;10.75;7.57;;;;;;;29.55;35.99;100127.69;5054994;28;20041;-77
2021/07/24 06:28:25;;;;;;;11.95;6.90;;;;;;;30.42;33.41;100127.97;5054197;28;20464;-79
2021/07/24 06:30:53;;;;;;;12.73;7.32;;;;;;;30.30;34.49;100124.25;5054800;28;20045;-80
2021/07/24 06:33:26;;;;;;;12.63;7.47;;;;;;;30.30;34.69;100124.25;5054854;28;20099;-78
2021/07/24 06:35:54;;;;;;;11.60;7.30;;;;;;;30.37;34.37;100123.13;5054988;28;20396;-78
2021/07/24 06:38:22;;;;;;;10.73;7.45;;;;;;;30.76;34.26;100121.94;5055004;28;20087;-77
2021/07/24 06:40:52;;;;;;;10.80;7.75;;;;;;;31.43;33.31;100130.34;5054735;28;20064;-77
2021/07/24 06:43:20;;;;;;;11.07;7.35;;;;;;;31.05;33.40;100125.03;5054626;28;20045;-77
2021/07/24 06:45:49;;;;;;;10.02;7.15;;;;;;;31.81;31.89;100127.31;5054658;28;20037;-77
2021/07/24 06:48:17;;;;;;;13.88;7.70;;;;;;;31.03;33.05;100119.75;5054766;28;20126;-77
2021/07/24 06:51:05;;;;;;;12.48;8.10;;;;;;;31.51;32.85;100115.41;5054236;28;20475;-78
2021/07/24 06:53:33;;;;;;;13.25;7.72;;;;;;;31.52;33.74;100109.66;5054631;28;20075;-77
2021/07/24 06:56:04;;;;;;;10.90;7.38;;;;;;;31.84;32.86;100124.06;5054583;28;20514;-78
2021/07/24 06:58:33;;;;;;;10.57;7.90;;;;;;;31.61;33.12;100122.03;5053303;28;20098;-79
2021/07/24 07:01:01;;;;;;;11.65;7.53;;;;;;;31.99;32.48;100122.81;5054439;28;20119;-78
2021/07/24 07:03:29;;;;;;;10.27;7.80;;;;;;;30.98;34.63;100116.00;5053857;28;20144;-79
2021/07/24 07:05:58;;;;;;;14.38;7.95;;;;;;;30.41;35.46;100127.13;5054066;28;20099;-78
2021/07/24 07:08:27;;;;;;;10.98;7.50;;;;;;;29.82;35.77;100127.50;5054193;28;20037;-78
2021/07/24 07:10:55;;;;;;;10.25;7.78;;;;;;;29.47;37.49;100119.66;5054170;28;20376;-78
2021/07/24 07:13:26;;;;;;;11.50;7.65;;;;;;;29.08;37.95;100126.97;5054227;28;20458;-78
2021/07/24 07:15:55;;;;;;;13.77;7.97;;;;;;;29.11;38.00;100125.69;5053988;28;20077;-78
2021/07/24 07:18:23;;;;;;;11.57;7.75;;;;;;;28.96;37.00;100115.00;5053827;28;20099;-78
2021/07/24 07:20:51;;;;;;;13.45;8.00;;;;;;;28.67;38.00;100110.78;5054464;28;20072;-78
2021/07/24 07:23:20;;;;;;;11.60;7.22;;;;;;;28.45;38.45;100114.81;5053939;28;20069;-78
2021/07/24 07:25:48;;;;;;;13.63;7.47;;;;;;;28.25;37.99;100114.78;5053948;28;20053;-78
2021/07/24 07:28:17;;;;;;;11.55;7.88;;;;;;;27.96;38.79;100113.28;5053901;28;20044;-78
2021/07/24 07:30:46;;;;;;;14.07;7.53;;;;;;;28.04;38.54;100106.75;5053740;28;20049;-78
2021/07/24 07:33:15;;;;;;;10.55;7.65;;;;;;;28.05;39.21;100108.44;5053498;28;20492;-78
2021/07/24 07:35:44;;;;;;;10.75;7.30;;;;;;;27.99;38.97;100103.78;5053664;28;20045;-78
2021/07/24 07:38:12;;;;;;;10.98;7.15;;;;;;;27.92;39.40;100107.38;5053369;28;20479;-78
2021/07/24 07:40:41;;;;;;;9.65;7.43;;;;;;;27.88;38.82;100103.34;5053674;28;20131;-79
2021/07/24 07:43:09;;;;;;;14.25;8.13;;;;;;;27.87;39.50;100098.91;5053570;28;20045;-78
2021/07/24 07:45:40;;;;;;;11.80;7.68;;;;;;;28.25;38.72;100103.81;5053859;28;20048;-79
2021/07/24 07:48:09;;;;;;;11.20;7.43;;;;;;;28.28;38.10;100108.03;5053467;28;20056;-79
2021/07/24 07:50:38;;;;;;;12.73;7.35;;;;;;;28.21;38.63;100108.03;5053454;28;20044;-79
2021/07/24 07:53:06;;;;;;;12.32;7.28;;;;;;;28.26;38.98;100105.50;5053282;28;20075;-79
2021/07/24 07:55:35;;;;;;;11.43;7.25;;;;;;;28.41;37.31;100099.84;5053587;28;20048;-79
2021/07/24 07:58:10;;;;;;;11.27;6.93;;;;;;;28.08;37.40;100097.88;5053174;28;20044;-79
2021/07/24 08:00:41;;;;;;;13.30;7.72;;;;;;;28.07;36.12;100098.09;5053252;28;20048;-79
2021/07/24 08:03:11;;;;;;;10.52;7.40;;;;;;;27.94;36.61;100094.31;5053203;28;20055;-79
2021/07/24 08:05:40;;;;;;;12.80;7.43;;;;;;;27.65;37.92;100102.84;5051785;28;20045;-78
2021/07/24 08:08:08;;;;;;;12.85;7.60;;;;;;;27.76;38.58;100094.06;5052896;28;20041;-79
2021/07/24 08:10:36;;;;;;;11.90;7.35;;;;;;;27.93;37.35;100095.34;5053453;28;20391;-79
2021/07/24 08:13:14;;;;;;;11.00;7.20;;;;;;;28.05;36.62;100086.50;5052839;28;20064;-78
2021/07/24 08:15:43;;;;;;;12.20;7.43;;;;;;;28.13;36.57;100080.81;5053043;28;20542;-79
2021/07/24 08:18:13;;;;;;;13.75;7.30;;;;;;;28.29;36.16;100077.69;5052733;28;20049;-79
2021/07/24 08:20:44;;;;;;;12.48;7.60;;;;;;;28.28;36.04;100076.03;5052935;28;20049;-79
2021/07/24 08:23:15;;;;;;;10.05;7.03;;;;;;;28.26;35.79;100074.50;5052754;28;20051;-79
2021/07/24 08:25:44;;;;;;;11.75;6.82;;;;;;;28.29;35.26;100077.69;5052851;28;20048;-79
2021/07/24 08:28:12;;;;;;;9.95;7.00;;;;;;;28.25;35.50;100081.88;5052674;28;20067;-79
2021/07/24 08:30:40;;;;;;;9.55;6.80;;;;;;;28.05;36.08;100072.81;5052796;28;20044;-78
2021/07/24 08:33:09;;;;;;;10.40;7.35;;;;;;;28.05;34.55;100078.28;5052797;28;20127;-79
2021/07/24 08:35:41;;;;;;;12.13;6.82;;;;;;;27.79;33.99;100076.34;5053089;28;20118;-78
2021/07/24 08:38:09;;;;;;;11.93;8.18;;;;;;;27.65;34.94;100080.94;5052665;28;20041;-79
2021/07/24 08:40:38;;;;;;;10.82;6.47;;;;;;;27.64;34.71;100082.00;5052769;28;20048;-78
2021/07/24 08:43:09;;;;;;;12.27;7.38;;;;;;;27.78;35.97;100072.75;5052888;28;20128;-79
2021/07/24 08:45:38;;;;;;;11.95;7.60;;;;;;;28.05;36.26;100072.81;5053011;28;20045;-77
2021/07/24 08:48:07;;;;;;;12.93;7.57;;;;;;;28.23;34.46;100073.84;5052426;28;20452;-78
2021/07/24 08:50:36;;;;;;;11.65;7.13;;;;;;;28.40;34.15;100074.31;5052932;28;20115;-78
2021/07/24 08:53:07;;;;;;;12.52;7.38;;;;;;;28.33;34.37;100078.94;5056471;28;20506;-78
2021/07/24 08:55:41;;;;;;;10.55;7.38;;;;;;;28.40;33.58;100085.28;5056134;28;20057;-78
2021/07/24 08:58:14;;;;;;;11.18;7.43;;;;;;;28.56;32.36;100083.13;5056763;28;20066;-78
2021/07/24 09:00:44;;;;;;;13.52;7.10;;;;;;;28.56;33.10;100077.66;5057127;28;20049;-77
2021/07/24 09:03:18;;;;;;;11.52;7.13;;;;;;;28.72;32.24;100067.06;5056686;28;20045;-78
2021/07/24 09:05:49;;;;;;;11.98;7.35;;;;;;;28.82;32.17;100066.63;5056763;28;20041;-78
2021/07/24 09:08:19;;;;;;;9.82;7.15;;;;;;;28.85;31.94;100070.81;5056366;28;20451;-78
2021/07/24 09:10:50;;;;;;;11.32;7.05;;;;;;;28.83;31.15;100073.78;5056666;28;20466;-78
2021/07/24 09:13:19;;;;;;;9.32;7.05;;;;;;;28.89;31.79;100070.22;5056432;28;20048;-78
2021/07/24 09:15:48;;;;;;;14.05;7.43;;;;;;;28.85;31.82;100074.41;5056298;28;20045;-78
2021/07/24 09:18:16;;;;;;;10.88;7.53;;;;;;;28.74;31.71;100069.59;5056241;28;20045;-78
2021/07/24 09:20:47;;;;;;;11.13;7.72;;;;;;;28.79;32.72;100067.06;5056200;28;20048;-78
2021/07/24 09:23:28;;;;;;;10.95;7.53;;;;;;;28.99;32.66;100065.13;5056149;28;20055;-78
2021/07/24 09:26:00;;;;;;;14.23;7.88;;;;;;;29.02;32.79;100064.69;5055037;28;20098;-78
2021/07/24 09:28:31;;;;;;;13.18;6.88;;;;;;;29.02;31.44;100061.94;5056430;28;20463;-78
2021/07/24 09:30:59;;;;;;;9.13;7.15;;;;;;;28.94;32.24;100059.44;5056421;28;20048;-78
2021/07/24 09:33:28;;;;;;;14.15;7.45;;;;;;;28.87;32.94;100063.25;5056530;28;20499;-77
2021/07/24 09:36:01;;;;;;;10.32;7.28;;;;;;;29.00;32.49;100061.31;5055671;28;20057;-78
2021/07/24 09:38:33;;;;;;;11.73;7.25;;;;;;;28.87;32.45;100053.09;5056716;28;20492;-78
2021/07/24 09:41:05;;;;;;;11.02;7.43;;;;;;;29.05;31.48;100053.28;5056940;28;20059;-78
2021/07/24 09:43:39;;;;;;;10.85;7.07;;;;;;;29.07;31.34;100050.31;5056280;28;20051;-79
2021/07/24 09:46:12;;;;;;;9.32;6.32;;;;;;;29.17;30.74;100052.59;5056011;28;20439;-76
2021/07/24 09:48:43;;;;;;;9.93;7.03;;;;;;;29.16;31.36;100064.66;5056807;28;20099;-77
2021/07/24 09:51:14;;;;;;;10.77;6.13;;;;;;;29.16;30.54;100059.16;5055855;28;20045;-78
2021/07/24 09:53:45;;;;;;;11.07;6.88;;;;;;;28.62;30.00;100057.59;5055160;28;20049;-77
2021/07/24 09:56:15;;;;;;;10.98;6.88;;;;;;;28.68;30.75;100059.50;5055753;28;20056;-78
2021/07/24 09:58:43;;;;;;;9.65;6.53;;;;;;;28.81;31.75;100056.72;5056247;28;20049;-77
2021/07/24 10:01:15;;;;;;;9.55;6.70;;;;;;;29.01;31.04;100053.94;5056000;28;20540;-77
2021/07/24 10:03:47;;;;;;;10.30;7.00;;;;;;;29.14;30.07;100053.03;5055951;28;20072;-77
2021/07/24 10:06:17;;;;;;;10.25;6.68;;;;;;;29.07;30.90;100064.06;5055784;28;20046;-77
2021/07/24 10:08:49;;;;;;;9.77;6.78;;;;;;;29.26;30.49;100045.81;5055743;28;20045;-77
2021/07/24 10:11:17;;;;;;;9.33;6.53;;;;;;;29.22;30.28;100050.03;5055448;28;20116;-77
2021/07/24 10:13:46;;;;;;;10.55;6.90;;;;;;;29.26;30.55;100052.13;5054216;28;20492;-77
2021/07/24 10:16:19;;;;;;;10.23;6.80;;;;;;;29.29;30.72;100046.19;5054368;28;20434;-78
2021/07/24 10:18:49;;;;;;;9.10;6.80;;;;;;;29.42;31.27;100047.19;5055718;28;20100;-77
2021/07/24 10:21:19;;;;;;;11.13;7.30;;;;;;;29.31;30.76;100051.47;5055618;28;20071;-78
2021/07/24 10:23:49;;;;;;;11.05;7.32;;;;;;;29.44;31.28;100053.31;5054673;28;20057;-78
2021/07/24 10:26:24;;;;;;;11.15;6.95;;;;;;;29.38;31.45;100054.19;5055138;28;20041;-78
2021/07/24 10:28:57;;;;;;;10.48;7.40;;;;;;;29.54;31.29;100054.56;5055456;28;20045;-78
2021/07/24 10:31:30;;;;;;;10.77;6.93;;;;;;;29.51;29.70;100048.63;5055138;28;20071;-78
2021/07/24 10:34:01;;;;;;;9.50;6.80;;;;;;;29.49;30.34;100051.63;5055230;28;20037;-78
2021/07/24 10:36:35;;;;;;;10.65;7.55;;;;;;;29.39;30.84;100048.47;5055108;28;20048;-78
2021/07/24 10:39:07;;;;;;;14.32;7.85;;;;;;;29.39;30.63;100048.47;5055191;28;20076;-78
2021/07/24 10:41:45;;;;;;;10.73;6.88;;;;;;;29.39;31.05;100045.72;5055179;28;20041;-77
2021/07/24 10:44:15;;;;;;;12.70;7.32;;;;;;;29.31;31.26;100040.47;5054936;28;20045;-78
2021/07/24 10:47:12;;;;;;;11.57;7.07;;;;;;;29.27;31.48;100036.50;5055161;28;20053;-77
2021/07/24 10:50:02;;;;;;;11.73;7.32;;;;;;;29.38;31.00;100035.78;5054852;28;20041;-76
2021/07/24 10:53:12;;;;;;;12.20;7.47;;;;;;;29.30;31.13;100041.53;5054610;28;20483;-77
2021/07/24 10:55:52;;;;;;;10.52;7.47;;;;;;;29.45;30.53;100044.00;5054805;28;20053;-77
2021/07/24 10:58:23;;;;;;;11.68;7.10;;;;;;;29.59;30.25;100040.97;5054623;28;20060;-77
2021/07/24 11:00:53;;;;;;;12.35;6.95;;;;;;;29.55;31.88;100045.25;5054790;28;20044;-77
2021/07/24 11:03:42;;;;;;;10.13;6.93;;;;;;;29.72;31.20;100036.44;5054318;28;20411;-77
2021/07/24 11:06:28;;;;;;;9.93;6.93;;;;;;;29.83;30.59;100035.75;5054402;28;20045;-78
2021/07/24 11:09:33;;;;;;;10.93;7.10;;;;;;;29.83;30.97;100028.34;5054857;28;20037;-79
2021/07/24 11:12:07;;;;;;;9.43;6.93;;;;;;;29.81;30.13;100029.63;5054682;28;20080;-77
2021/07/24 11:14:57;;;;;;;10.38;7.03;;;;;;;29.74;31.19;100032.44;5053357;28;20102;-79
2021/07/24 11:17:26;;;;;;;12.15;7.32;;;;;;;29.89;30.79;100034.84;5054231;28;20041;-79
2021/07/24 11:20:33;;;;;;;10.65;6.75;;;;;;;29.91;30.63;100029.97;5054190;28;20056;-77
2021/07/24 11:23:07;;;;;;;11.82;6.60;;;;;;;29.96;30.40;100024.66;5054314;28;20553;-77
2021/07/24 11:25:37;;;;;;;11.38;7.63;;;;;;;29.95;30.73;100027.63;5054030;28;20429;-77
2021/07/24 11:28:08;;;;;;;9.68;6.50;;;;;;;30.03;30.61;100019.94;5054570;28;20045;-77
2021/07/24 11:30:36;;;;;;;9.98;7.00;;;;;;;30.00;29.90;100025.88;5053505;28;20476;-77
2021/07/24 11:33:05;;;;;;;10.43;6.85;;;;;;;29.92;30.37;100016.00;5053812;28;20483;-77
2021/07/24 11:35:38;;;;;;;11.98;7.35;;;;;;;29.87;30.17;100018.56;5053767;28;20051;-78